Time;durP1;ratioP1;P1;durP2;ratioP2;P2;SDS_P1;SDS_P2;PMS_P1;PMS_P2;Temp;Humidity;BMP_temperature;BMP_pressure;BME280_temperature;BME280_humidity;BME280_pressure;Samples;Min_cycle;Max_cycle;Signal;HPM_P1;HPM_P2
2023/07/13 00:01:49;;;;;;;0.40;0.40;;;;;;;12.57;100.00;99519.97;4978012;28;20148;-60
2023/07/13 00:04:21;;;;;;;3.25;0.50;;;;;;;12.59;100.00;99515.53;4991389;28;20104;-60
2023/07/13 00:06:52;;;;;;;0.30;0.30;;;;;;;12.54;100.00;99517.47;4977495;28;20042;-57
2023/07/13 00:09:23;;;;;;;2.28;0.50;;;;;;;12.36;100.00;99488.41;4988946;28;20472;-55
2023/07/13 00:11:55;;;;;;;0.47;0.40;;;;;;;12.62;100.00;99528.53;4976381;28;20058;-59
2023/07/13 00:14:29;;;;;;;0.40;0.40;;;;;;;12.35;100.00;99481.44;4988962;28;20507;-58
2023/07/13 00:17:00;;;;;;;0.40;0.40;;;;;;;12.60;100.00;99522.47;4976536;28;20122;-60
2023/07/13 00:19:30;;;;;;;0.55;0.40;;;;;;;12.57;100.00;99538.31;4986622;28;20057;-55
2023/07/13 00:22:01;;;;;;;2.15;0.40;;;;;;;12.38;100.00;99502.31;4978972;28;20145;-61
2023/07/13 00:24:31;;;;;;;0.73;0.40;;;;;;;12.60;100.00;99522.47;4987375;28;20052;-60
2023/07/13 00:27:02;;;;;;;1.75;0.50;;;;;;;12.68;100.00;99515.19;4977166;28;20474;-58
2023/07/13 00:29:34;;;;;;;1.45;0.60;;;;;;;12.73;100.00;99518.50;4989661;28;20062;-57
2023/07/13 00:32:05;;;;;;;0.80;0.50;;;;;;;12.75;100.00;99516.66;4977123;28;20050;-57
2023/07/13 00:34:36;;;;;;;0.40;0.40;;;;;;;12.69;100.00;99522.16;4989470;28;20062;-61
2023/07/13 00:37:08;;;;;;;1.75;0.40;;;;;;;12.26;100.00;99455.59;4977289;28;20056;-57
2023/07/13 00:39:39;;;;;;;1.05;0.55;;;;;;;12.66;100.00;99522.28;4984191;28;20049;-62
2023/07/13 00:42:09;;;;;;;3.92;0.57;;;;;;;12.71;100.00;99515.09;4989282;28;20132;-58
2023/07/13 00:44:41;;;;;;;0.70;0.40;;;;;;;12.75;100.00;99532.41;4982068;28;20057;-58
2023/07/13 00:47:12;;;;;;;0.40;0.40;;;;;;;12.74;100.00;99531.53;4986807;28;20245;-62
2023/07/13 00:49:42;;;;;;;0.45;0.40;;;;;;;12.76;100.00;99528.88;4978181;28;20056;-60
2023/07/13 00:52:13;;;;;;;0.45;0.45;;;;;;;12.71;100.00;99530.81;4991372;28;20071;-56
2023/07/13 00:54:46;;;;;;;1.65;0.47;;;;;;;12.71;100.00;99529.03;4975172;28;20916;-63
2023/07/13 00:57:20;;;;;;;2.25;0.57;;;;;;;12.66;100.00;99536.22;4982893;28;20140;-61
2023/07/13 00:59:58;;;;;;;1.08;0.60;;;;;;;12.57;100.00;99522.59;4980043;28;20046;-60
2023/07/13 01:02:30;;;;;;;0.77;0.60;;;;;;;12.54;100.00;99533.19;4988489;28;20087;-59
2023/07/13 01:05:01;;;;;;;3.92;0.50;;;;;;;12.48;100.00;99529.00;4976633;28;20074;-54
2023/07/13 01:07:32;;;;;;;0.77;0.50;;;;;;;12.44;100.00;99533.50;4993485;28;20100;-57
2023/07/13 01:12:46;;;;;;;2.17;0.80;;;;;;;12.40;100.00;99537.16;4964718;28;20084;-56
2023/07/13 01:15:41;;;;;;;3.13;0.60;;;;;;;12.36;100.00;99530.31;4975582;28;20051;-57
2023/07/13 01:18:14;;;;;;;0.85;0.50;;;;;;;12.28;100.00;99537.56;4978349;28;20468;-60
2023/07/13 01:20:50;;;;;;;2.70;0.70;;;;;;;12.31;100.00;99537.50;4976425;28;20140;-59
2023/07/13 01:23:22;;;;;;;1.02;0.57;;;;;;;12.32;100.00;99543.56;4993637;28;20057;-59
2023/07/13 01:25:52;;;;;;;1.50;0.52;;;;;;;12.35;100.00;99543.47;4982544;28;20064;-58
2023/07/13 01:28:26;;;;;;;1.27;0.70;;;;;;;12.36;100.00;99546.03;4993665;28;20144;-57
2023/07/13 01:30:58;;;;;;;0.50;0.50;;;;;;;12.16;100.00;99506.59;4976881;28;20149;-56
2023/07/13 01:33:29;;;;;;;1.33;0.63;;;;;;;12.43;100.00;99537.06;4992123;28;20113;-59
2023/07/13 01:36:02;;;;;;;1.20;0.70;;;;;;;12.46;100.00;99542.19;4983039;28;20059;-60
2023/07/13 01:38:33;;;;;;;1.88;0.60;;;;;;;12.52;100.00;99547.19;4989197;28;20695;-60
2023/07/13 01:41:05;;;;;;;1.50;0.70;;;;;;;12.55;100.00;99546.22;4981381;28;20043;-57
2023/07/13 01:43:35;;;;;;;1.42;0.95;;;;;;;12.59;100.00;99537.34;4989152;28;20475;-59
2023/07/13 01:46:06;;;;;;;2.75;0.93;;;;;;;12.55;100.00;99540.97;4980162;28;20049;-60
2023/07/13 01:48:53;;;;;;;0.70;0.70;;;;;;;12.57;100.00;99538.31;4980460;28;20136;-60
2023/07/13 01:51:25;;;;;;;2.60;0.90;;;;;;;12.55;100.00;99540.13;4984875;28;20476;-60
2023/07/13 01:53:56;;;;;;;1.70;0.90;;;;;;;12.54;100.00;99539.28;4955407;28;20038;-61
2023/07/13 01:56:26;;;;;;;4.35;1.40;;;;;;;12.58;100.00;99551.38;4989589;28;20065;-58
2023/07/13 01:58:57;;;;;;;1.58;0.98;;;;;;;12.58;100.00;99545.25;4984725;28;20033;-59
2023/07/13 02:01:27;;;;;;;1.33;0.80;;;;;;;12.54;100.00;99554.16;4990566;28;20112;-61
2023/07/13 02:03:58;;;;;;;3.35;0.70;;;;;;;12.49;100.00;99551.69;4972279;28;20079;-57
2023/07/13 02:06:30;;;;;;;0.90;0.70;;;;;;;12.49;100.00;99551.69;4990945;28;20083;-61
2023/07/13 02:09:01;;;;;;;1.20;0.77;;;;;;;12.41;100.00;99559.84;4980522;28;20103;-61
2023/07/13 02:11:33;;;;;;;1.25;0.73;;;;;;;12.49;100.00;99557.78;4993440;28;20081;-56
2023/07/13 02:14:02;;;;;;;0.77;0.77;;;;;;;12.48;100.00;99558.72;4969226;28;20124;-58
2023/07/13 02:16:33;;;;;;;1.00;0.70;;;;;;;12.32;100.00;99523.47;4989487;28;20385;-59
2023/07/13 02:19:04;;;;;;;1.23;1.00;;;;;;;12.64;100.00;99555.53;4981729;28;20404;-59
2023/07/13 02:21:36;;;;;;;1.02;0.77;;;;;;;12.70;100.00;99550.06;4989785;28;20053;-60
2023/07/13 02:24:07;;;;;;;1.55;0.73;;;;;;;12.77;100.00;99556.78;4979573;28;20147;-60
2023/07/13 02:26:37;;;;;;;1.48;0.80;;;;;;;12.87;100.00;99552.06;4990925;28;20034;-60
2023/07/13 02:29:08;;;;;;;2.28;0.85;;;;;;;12.89;100.00;99556.34;4972522;28;20042;-60
2023/07/13 02:31:38;;;;;;;1.73;0.85;;;;;;;12.90;100.00;99563.31;4987521;28;20346;-57
2023/07/13 02:34:09;;;;;;;1.42;0.77;;;;;;;12.97;100.00;99563.06;4989803;28;20069;-57
2023/07/13 02:36:41;;;;;;;1.23;0.75;;;;;;;12.95;100.00;99560.50;4983944;28;20421;-56
2023/07/13 02:39:14;;;;;;;1.10;0.80;;;;;;;12.89;100.00;99545.00;4991128;28;20360;-56
2023/07/13 02:41:44;;;;;;;1.10;0.85;;;;;;;12.90;100.00;99563.31;4981419;28;20496;-58
2023/07/13 02:44:15;;;;;;;0.82;0.63;;;;;;;12.92;100.00;99561.47;4990396;28;20081;-59
2023/07/13 02:46:46;;;;;;;0.93;0.60;;;;;;;13.02;100.00;99561.13;4979446;28;20444;-60
2023/07/13 02:49:16;;;;;;;0.65;0.60;;;;;;;13.02;100.00;99567.22;4988420;28;20045;-57
2023/07/13 02:51:48;;;;;;;0.40;0.40;;;;;;;13.04;100.00;99564.56;4981323;28;20050;-60
2023/07/13 02:54:19;;;;;;;2.38;0.45;;;;;;;13.01;100.00;99559.44;4990700;28;20041;-60
2023/07/13 02:56:49;;;;;;;0.47;0.47;;;;;;;13.07;100.00;99572.31;4980852;28;20042;-59
2023/07/13 02:59:20;;;;;;;1.38;0.57;;;;;;;12.95;100.00;99569.25;4989917;28;20049;-58
2023/07/13 03:01:51;;;;;;;1.58;0.50;;;;;;;13.04;100.00;99575.06;4978895;28;20073;-61
2023/07/13 03:04:22;;;;;;;0.32;0.32;;;;;;;13.04;100.00;99569.81;4990117;28;20057;-60
2023/07/13 03:06:57;;;;;;;1.95;0.40;;;;;;;13.00;100.00;99570.81;4974850;28;20429;-60
2023/07/13 03:09:28;;;;;;;0.40;0.35;;;;;;;12.99;100.00;99577.00;4989973;28;20089;-57
2023/07/13 03:11:58;;;;;;;1.05;0.50;;;;;;;12.97;100.00;99574.41;4979668;28;20405;-58
2023/07/13 03:14:30;;;;;;;0.75;0.43;;;;;;;13.02;100.00;99563.75;4991194;28;20045;-59
2023/07/13 03:17:00;;;;;;;0.35;0.35;;;;;;;13.07;100.00;99575.78;4980096;28;20460;-61
2023/07/13 03:19:34;;;;;;;0.70;0.55;;;;;;;13.11;100.00;99571.28;4988740;28;20456;-58
2023/07/13 03:22:09;;;;;;;0.30;0.30;;;;;;;13.12;100.00;99567.72;4980166;28;20061;-58
2023/07/13 03:24:41;;;;;;;0.40;0.40;;;;;;;13.12;100.00;99578.22;4981448;28;20061;-60
2023/07/13 03:27:15;;;;;;;0.40;0.40;;;;;;;13.04;100.00;99575.06;4987710;28;20057;-60
2023/07/13 03:29:47;;;;;;;1.08;0.40;;;;;;;13.09;100.00;99567.84;4978483;28;20128;-62
2023/07/13 03:32:20;;;;;;;0.40;0.40;;;;;;;13.01;100.00;99554.19;4989617;28;20061;-61
2023/07/13 03:34:54;;;;;;;4.53;0.93;;;;;;;12.98;100.00;99570.00;4976703;28;20510;-58
2023/07/13 03:37:27;;;;;;;2.25;0.50;;;;;;;12.83;100.00;99551.34;4988778;28;20053;-58
2023/07/13 03:39:58;;;;;;;0.52;0.50;;;;;;;12.90;100.00;99573.81;4979030;28;20144;-61
2023/07/13 03:42:29;;;;;;;0.52;0.47;;;;;;;12.85;100.00;99567.84;4988520;28;20433;-56
2023/07/13 03:45:00;;;;;;;0.50;0.50;;;;;;;12.91;100.00;99567.63;4975504;28;20058;-63
2023/07/13 03:47:32;;;;;;;0.73;0.57;;;;;;;12.90;100.00;99565.94;4989691;28;20916;-62
2023/07/13 03:50:04;;;;;;;1.38;0.50;;;;;;;12.92;100.00;99576.34;4978708;28;20046;-62
2023/07/13 03:52:37;;;;;;;1.02;0.60;;;;;;;12.97;100.00;99573.56;4988117;28;20045;-60
2023/07/13 03:55:10;;;;;;;1.13;0.50;;;;;;;12.97;100.00;99573.56;4979519;28;20054;-57
2023/07/13 03:57:42;;;;;;;0.65;0.52;;;;;;;12.95;100.00;99574.50;4976879;28;20054;-58
2023/07/13 04:00:15;;;;;;;1.17;0.60;;;;;;;13.02;100.00;99593.44;4990655;28;20055;-58
2023/07/13 04:02:50;;;;;;;0.75;0.50;;;;;;;13.05;100.00;99587.22;4980227;28;20061;-60
2023/07/13 04:05:22;;;;;;;1.52;0.60;;;;;;;13.04;100.00;99581.13;4987004;28;20050;-58
2023/07/13 04:07:56;;;;;;;1.98;0.90;;;;;;;12.98;100.00;99591.00;4977271;28;20049;-60
2023/07/13 04:10:29;;;;;;;1.75;1.02;;;;;;;12.89;100.00;99598.28;4988989;28;20053;-50
2023/07/13 04:13:01;;;;;;;5.22;1.10;;;;;;;12.81;100.00;99595.09;4977718;28;20394;-58
2023/07/13 04:15:33;;;;;;;1.95;0.90;;;;;;;12.72;100.00;99587.56;4986141;28;20050;-57
2023/07/13 04:18:06;;;;;;;2.10;0.80;;;;;;;12.51;100.00;99536.78;4977330;28;20058;-58
2023/07/13 04:20:38;;;;;;;3.50;1.08;;;;;;;12.90;100.00;99572.94;4986822;28;20137;-59
2023/07/13 04:23:12;;;;;;;2.05;0.80;;;;;;;12.98;100.00;99576.13;4975978;28;20057;-62
2023/07/13 04:25:49;;;;;;;2.78;0.80;;;;;;;13.02;100.00;99579.50;4976271;28;20077;-62
2023/07/13 04:28:20;;;;;;;0.95;0.60;;;;;;;13.21;100.00;99596.25;4986734;28;20072;-58
2023/07/13 04:30:53;;;;;;;1.30;0.57;;;;;;;13.26;100.00;99596.94;4979330;28;20389;-57
2023/07/13 04:33:25;;;;;;;1.00;0.50;;;;;;;12.94;100.00;99522.09;4987955;28;20484;-60
2023/07/13 04:35:59;;;;;;;1.00;0.40;;;;;;;13.49;100.00;99589.97;4978703;28;20064;-59
2023/07/13 04:38:34;;;;;;;2.67;0.50;;;;;;;13.31;100.00;99547.78;4987991;28;20054;-57
2023/07/13 04:41:08;;;;;;;1.58;0.73;;;;;;;13.70;100.00;99602.22;4975932;28;20073;-61
2023/07/13 04:43:40;;;;;;;0.57;0.40;;;;;;;13.67;100.00;99607.63;4983972;28;20527;-58
2023/07/13 04:46:17;;;;;;;1.38;0.40;;;;;;;13.56;100.00;99604.56;4988370;28;20120;-62
2023/07/13 04:48:48;;;;;;;1.15;0.50;;;;;;;13.65;100.00;99614.69;4977998;28;20064;-64
2023/07/13 04:51:20;;;;;;;0.70;0.47;;;;;;;13.75;100.00;99618.69;4989254;28;20045;-62
2023/07/13 04:53:54;;;;;;;1.92;0.68;;;;;;;13.77;100.00;99624.72;4977286;28;20057;-59
2023/07/13 04:56:30;;;;;;;0.75;0.40;;;;;;;13.74;100.00;99630.09;4984962;28;20159;-62
2023/07/13 04:59:02;;;;;;;0.60;0.30;;;;;;;13.64;100.00;99613.00;4978231;28;20053;-57
2023/07/13 05:01:34;;;;;;;1.73;0.70;;;;;;;13.52;100.00;99631.84;4987971;28;20284;-64
2023/07/13 05:04:06;;;;;;;1.50;0.57;;;;;;;13.47;100.00;99631.16;4978515;28;20284;-61
2023/07/13 05:06:38;;;;;;;0.45;0.40;;;;;;;13.43;100.00;99629.56;4989064;28;20085;-63
2023/07/13 05:09:13;;;;;;;0.65;0.40;;;;;;;13.40;100.00;99619.19;4978541;28;20412;-56
2023/07/13 05:11:46;;;;;;;1.33;0.50;;;;;;;13.37;100.00;99631.50;4975377;28;20099;-62
2023/07/13 05:14:17;;;;;;;2.75;0.65;;;;;;;13.33;100.00;99624.69;4988241;28;20125;-62
2023/07/13 05:16:49;;;;;;;1.10;0.50;;;;;;;13.30;100.00;99630.03;4978554;28;20111;-61
2023/07/13 05:19:24;;;;;;;1.58;0.70;;;;;;;13.33;100.00;99629.94;4987983;28;20457;-62
2023/07/13 05:21:57;;;;;;;1.15;0.60;;;;;;;13.33;100.00;99624.69;4976027;28;20050;-62
2023/07/13 05:24:33;;;;;;;1.35;0.52;;;;;;;13.28;100.00;99634.50;4987216;28;20626;-57
2023/07/13 05:27:06;;;;;;;2.83;0.50;;;;;;;13.21;100.00;99625.09;4975170;28;20041;-53
2023/07/13 05:29:39;;;;;;;1.42;0.70;;;;;;;13.30;100.00;99629.16;4987659;28;20054;-57
2023/07/13 05:32:10;;;;;;;1.70;0.50;;;;;;;13.33;100.00;99632.56;4976189;28;20053;-61
2023/07/13 05:34:43;;;;;;;1.60;0.68;;;;;;;13.31;100.00;99637.00;4976494;28;20038;-56
2023/07/13 05:37:15;;;;;;;1.77;0.57;;;;;;;13.27;100.00;99635.41;4987980;28;20054;-60
2023/07/13 05:39:49;;;;;;;0.93;0.63;;;;;;;13.21;100.00;99630.34;4976983;28;20054;-60
2023/07/13 05:42:22;;;;;;;4.10;0.95;;;;;;;13.16;100.00;99637.53;4988088;28;20038;-57
2023/07/13 05:44:55;;;;;;;1.65;0.55;;;;;;;13.13;100.00;99648.16;4975742;28;20058;-61
2023/07/13 05:47:29;;;;;;;2.72;0.77;;;;;;;13.10;100.00;99650.88;4986891;28;20054;-61
2023/07/13 05:50:02;;;;;;;3.40;0.70;;;;;;;13.04;100.00;99653.72;4978226;28;20518;-63
2023/07/13 05:52:36;;;;;;;0.80;0.60;;;;;;;13.00;100.00;99652.13;4991599;28;20119;-65
2023/07/13 05:55:10;;;;;;;2.42;0.60;;;;;;;12.93;100.00;99649.72;4979802;28;20371;-62
2023/07/13 05:57:42;;;;;;;1.98;0.60;;;;;;;12.91;100.00;99651.53;4980282;28;20076;-63
2023/07/13 06:00:16;;;;;;;1.30;0.70;;;;;;;12.92;100.00;99665.50;4991519;28;20799;-65
2023/07/13 06:02:49;;;;;;;1.73;0.70;;;;;;;12.87;100.00;99663.03;4980274;28;20125;-59
2023/07/13 06:05:21;;;;;;;0.70;0.45;;;;;;;12.82;100.00;99661.50;4990431;28;20061;-64
2023/07/13 06:07:54;;;;;;;2.47;0.50;;;;;;;12.52;100.00;99620.56;4979562;28;20052;-66
2023/07/13 06:10:28;;;;;;;1.58;0.80;;;;;;;12.94;100.00;99675.03;4978226;28;20057;-62
2023/07/13 06:13:00;;;;;;;2.28;0.50;;;;;;;12.99;100.00;99671.41;4964781;28;20667;-59
2023/07/13 06:15:32;;;;;;;1.25;0.60;;;;;;;12.95;100.00;99684.63;4974076;28;20046;-63
2023/07/13 06:18:04;;;;;;;0.50;0.50;;;;;;;13.06;100.00;99678.13;4964372;28;20054;-61
2023/07/13 06:20:37;;;;;;;1.92;0.60;;;;;;;13.08;100.00;99668.41;4973288;28;20060;-61
2023/07/13 06:23:09;;;;;;;1.95;0.60;;;;;;;13.15;100.00;99677.78;4964514;28;20453;-62
2023/07/13 06:25:44;;;;;;;0.63;0.50;;;;;;;13.17;100.00;99675.97;4961972;28;20077;-61
2023/07/13 06:28:16;;;;;;;4.75;0.47;;;;;;;13.12;100.00;99683.16;4983368;28;20558;-63
2023/07/13 06:30:49;;;;;;;0.73;0.40;;;;;;;13.05;100.00;99686.91;4973162;28;20042;-56
2023/07/13 06:33:21;;;;;;;0.32;0.32;;;;;;;13.00;100.00;99679.19;4982136;28;20052;-60
2023/07/13 06:35:56;;;;;;;0.43;0.35;;;;;;;12.99;100.00;99687.97;4973096;28;20050;-61
2023/07/13 06:38:28;;;;;;;0.40;0.40;;;;;;;12.98;100.00;99685.41;4983379;28;20514;-60
2023/07/13 06:41:02;;;;;;;0.50;0.40;;;;;;;12.93;100.00;99688.22;4973712;28;20365;-58
2023/07/13 06:43:35;;;;;;;2.97;0.70;;;;;;;12.87;100.00;99697.13;4982526;28;20546;-57
2023/07/13 06:46:07;;;;;;;3.08;0.45;;;;;;;12.79;100.00;99696.53;4972618;28;20412;-62
2023/07/13 06:48:38;;;;;;;2.28;0.90;;;;;;;12.68;100.00;99694.28;4983398;28;20042;-62
2023/07/13 06:51:10;;;;;;;0.82;0.50;;;;;;;12.68;100.00;99677.69;4972934;28;20054;-61
2023/07/13 06:53:43;;;;;;;1.75;0.68;;;;;;;12.64;100.00;99691.84;4972370;28;20052;-59
2023/07/13 06:56:16;;;;;;;2.15;0.50;;;;;;;12.62;100.00;99691.03;4981967;28;20396;-59
2023/07/13 06:58:54;;;;;;;1.65;0.50;;;;;;;12.56;100.00;99693.88;4971831;28;20045;-60
2023/07/13 07:01:38;;;;;;;3.00;0.50;;;;;;;12.52;100.00;99686.06;4981489;28;20477;-59
2023/07/13 07:04:12;;;;;;;1.55;0.60;;;;;;;12.55;100.00;99698.22;4972418;28;20119;-58
2023/07/13 07:06:45;;;;;;;1.25;0.50;;;;;;;12.56;100.00;99692.09;4973367;28;20498;-59
2023/07/13 07:09:17;;;;;;;0.60;0.60;;;;;;;12.53;100.00;99689.59;4981245;28;20057;-57
2023/07/13 07:11:53;;;;;;;1.50;0.50;;;;;;;12.48;100.00;99692.34;4981887;28;20484;-57
2023/07/13 07:14:34;;;;;;;1.38;0.60;;;;;;;12.43;100.00;99699.50;4990256;28;20060;-58
2023/07/13 07:17:07;;;;;;;1.08;0.63;;;;;;;12.19;100.00;99674.09;4980439;28;20045;-61
2023/07/13 07:19:40;;;;;;;2.38;0.65;;;;;;;12.40;100.00;99699.59;4991860;28;20053;-61
2023/07/13 07:22:15;;;;;;;2.35;0.45;;;;;;;12.37;100.00;99699.69;4980454;28;20046;-63
2023/07/13 07:24:48;;;;;;;0.40;0.40;;;;;;;12.37;100.00;99715.41;4982301;28;20063;-60
2023/07/13 07:27:22;;;;;;;0.88;0.47;;;;;;;12.35;100.00;99701.50;4993130;28;20803;-59
2023/07/13 07:29:59;;;;;;;3.67;2.80;;;;;;;12.31;100.00;99699.91;4982665;28;20068;-61
2023/07/13 07:32:33;;;;;;;0.50;0.50;;;;;;;12.31;100.00;99720.88;4990687;28;20065;-59
2023/07/13 07:35:09;;;;;;;1.00;0.57;;;;;;;12.14;100.00;99703.06;4979882;28;20192;-59
2023/07/13 07:37:41;;;;;;;2.15;0.50;;;;;;;12.21;100.00;99724.69;4983914;28;20370;-61
2023/07/13 07:40:16;;;;;;;1.95;0.50;;;;;;;12.07;100.00;99702.38;4992490;28;20127;-60
2023/07/13 07:42:52;;;;;;;1.98;0.43;;;;;;;12.05;100.00;99722.53;4983280;28;20057;-60
2023/07/13 07:45:24;;;;;;;0.55;0.50;;;;;;;11.94;100.00;99727.25;4992194;28;20451;-63
2023/07/13 07:47:58;;;;;;;0.55;0.40;;;;;;;11.94;100.00;99732.47;4980968;28;20425;-63
2023/07/13 07:50:30;;;;;;;0.73;0.50;;;;;;;11.88;100.00;99724.78;4991036;28;20041;-61
2023/07/13 07:53:07;;;;;;;0.60;0.40;;;;;;;11.92;100.00;99738.66;4982983;28;20049;-60
2023/07/13 07:55:39;;;;;;;0.68;0.50;;;;;;;11.92;100.00;99750.00;4971895;28;20125;-62
2023/07/13 07:58:35;;;;;;;0.95;0.70;;;;;;;11.90;100.00;99746.56;4994592;28;20042;-62
2023/07/13 08:01:10;;;;;;;0.50;0.50;;;;;;;11.91;100.00;99753.53;4995018;28;20050;-63
2023/07/13 08:03:45;;;;;;;0.57;0.40;;;;;;;11.87;100.00;99746.66;4987054;28;20445;-60
2023/07/13 08:06:23;;;;;;;0.63;0.40;;;;;;;11.84;100.00;99752.81;4990443;28;20060;-59
2023/07/13 08:08:59;;;;;;;0.57;0.32;;;;;;;11.87;100.00;99757.97;4985711;28;20068;-62
2023/07/13 08:11:34;;;;;;;0.50;0.40;;;;;;;11.86;100.00;99750.16;4984367;28;20034;-64
2023/07/13 08:14:11;;;;;;;0.98;0.40;;;;;;;11.87;100.00;99757.13;4993892;28;20206;-63
2023/07/13 08:16:46;;;;;;;0.43;0.40;;;;;;;11.85;100.00;99748.44;5013651;28;20053;-63
2023/07/13 08:19:18;;;;;;;0.47;0.43;;;;;;;11.85;100.00;99753.66;5013701;28;20136;-63
2023/07/13 08:21:52;;;;;;;0.35;0.35;;;;;;;11.55;100.00;99703.09;4979451;28;20053;-63
2023/07/13 08:24:29;;;;;;;1.83;0.40;;;;;;;11.82;100.00;99759.00;4971408;28;20081;-62
2023/07/13 08:27:05;;;;;;;0.40;0.40;;;;;;;11.35;100.00;99691.44;4961594;28;20162;-62
2023/07/13 08:29:40;;;;;;;0.63;0.50;;;;;;;11.81;100.00;99762.53;4970917;28;20066;-57
2023/07/13 08:32:13;;;;;;;3.53;0.70;;;;;;;11.89;100.00;99765.81;4961663;28;20113;-61
2023/07/13 08:34:45;;;;;;;0.73;0.50;;;;;;;11.87;100.00;99770.22;4971341;28;20448;-63
2023/07/13 08:37:18;;;;;;;0.47;0.40;;;;;;;11.88;100.00;99771.91;4980496;28;20050;-62
2023/07/13 08:39:51;;;;;;;0.50;0.50;;;;;;;11.92;100.00;99768.31;4971571;28;20050;-62
2023/07/13 08:42:39;;;;;;;0.82;0.60;;;;;;;11.86;100.00;99761.50;4980521;28;20520;-59
2023/07/13 08:45:22;;;;;;;0.80;0.50;;;;;;;11.91;100.00;99769.25;4965068;28;20056;-60
2023/07/13 08:47:59;;;;;;;1.02;0.50;;;;;;;11.89;100.00;99771.03;4970384;28;20052;-59
2023/07/13 08:50:37;;;;;;;2.38;0.50;;;;;;;11.76;100.00;99759.19;4981621;28;20104;-58
2023/07/13 08:53:37;;;;;;;3.40;0.73;;;;;;;11.84;100.00;99786.00;4980209;28;20059;-58
2023/07/13 08:56:18;;;;;;;2.28;0.55;;;;;;;11.79;100.00;99786.13;4963822;28;20084;-58
2023/07/13 08:58:56;;;;;;;1.65;0.80;;;;;;;11.79;100.00;99777.41;4969951;28;20054;-59
2023/07/13 09:02:18;;;;;;;0.98;0.50;;;;;;;11.77;100.00;99781.84;4979843;28;20125;-62
2023/07/13 09:06:07;;;;;;;;;;;;;;;;;;;;;
2023/07/13 09:09:15;;;;;;;1.23;0.70;;;;;;;11.74;100.00;99789.78;4979703;28;20088;-59
2023/07/13 09:12:50;;;;;;;;;;;;;;;;;;;;;
2023/07/13 09:16:13;;;;;;;3.88;0.80;;;;;;;11.59;100.00;99794.53;4928893;28;20136;-61
2023/07/13 09:23:31;;;;;;;3.92;1.20;;;;;;;11.52;100.00;99803.44;4989101;28;20081;-63
2023/07/13 09:30:44;;;;;;;3.92;0.98;;;;;;;11.20;100.00;99767.72;4994434;28;20658;-58
2023/07/13 09:34:14;;;;;;;1.10;0.90;;;;;;;11.40;100.00;99803.78;4993340;28;20049;-58
2023/07/13 09:38:02;;;;;;;4.10;0.82;;;;;;;11.39;100.00;99808.16;4993158;28;20058;-61
2023/07/13 09:41:15;;;;;;;1.38;0.82;;;;;;;11.39;100.00;99812.53;4993219;28;20132;-62
2023/07/13 09:44:38;;;;;;;2.30;1.00;;;;;;;11.35;100.00;99816.13;4993843;28;20062;-61
2023/07/13 09:48:11;;;;;;;2.80;0.90;;;;;;;11.28;100.00;99811.97;5002168;28;20315;-65
2023/07/13 09:51:26;;;;;;;1.10;0.65;;;;;;;11.29;100.00;99819.78;4963288;28;20057;-57
2023/07/13 09:54:41;;;;;;;1.23;0.80;;;;;;;11.28;100.00;99814.56;4993730;28;20475;-63
2023/07/13 09:57:48;;;;;;;1.25;0.80;;;;;;;11.24;100.00;99832.13;5002511;28;20057;-61
2023/07/13 10:01:11;;;;;;;3.30;0.93;;;;;;;11.23;100.00;99833.00;5003199;28;20045;-63
2023/07/13 10:04:46;;;;;;;0.90;0.80;;;;;;;11.15;100.00;99830.59;4992580;28;20049;-58
2023/07/13 10:08:00;;;;;;;1.58;0.95;;;;;;;11.16;100.00;99837.53;4943229;28;20121;-63
2023/07/13 10:21:54;;;;;;;;;;;;;;;;;;;;;
2023/07/13 10:25:00;;;;;;;5.28;1.33;;;;;;;11.04;100.00;99855.31;4881999;28;20133;-59
2023/07/13 10:28:45;;;;;;;;;;;;;;;;;;;;;
2023/07/13 10:32:31;;;;;;;3.17;1.40;;;;;;;11.01;100.00;99866.69;4933979;28;20134;-61
2023/07/13 10:39:33;;;;;;;4.88;1.10;;;;;;;10.87;100.00;99855.72;4941976;28;20086;-60
2023/07/13 10:42:17;;;;;;;3.47;1.40;;;;;;;10.97;100.00;99883.34;4932835;28;20138;-58
2023/07/13 10:44:51;;;;;;;2.53;1.67;;;;;;;10.97;100.00;99880.72;4963842;28;20075;-63
2023/07/13 10:47:29;;;;;;;4.43;1.58;;;;;;;10.97;100.00;99891.19;5002689;28;20083;-62
2023/07/13 10:50:40;;;;;;;2.40;1.52;;;;;;;10.95;100.00;99900.81;4992706;28;20061;-62
2023/07/13 10:54:01;;;;;;;5.95;1.80;;;;;;;10.93;100.00;99905.22;5001679;28;20494;-61
2023/07/13 11:01:03;;;;;;;3.50;1.60;;;;;;;10.92;100.00;99911.34;4998771;28;20041;-63
2023/07/13 11:04:15;;;;;;;3.92;1.75;;;;;;;10.80;100.00;99900.28;4992825;28;20526;-65
2023/07/13 11:08:09;;;;;;;2.95;1.45;;;;;;;10.94;100.00;99920.03;4991638;28;20338;-64
2023/07/13 11:15:37;;;;;;;6.15;1.60;;;;;;;10.90;100.00;99934.91;4949073;28;20067;-59
2023/07/13 11:18:25;;;;;;;4.03;1.48;;;;;;;10.86;100.00;99921.94;4969530;28;20069;-59
2023/07/13 11:21:47;;;;;;;5.85;1.85;;;;;;;10.85;100.00;99933.28;4970315;28;20046;-61
2023/07/13 11:24:51;;;;;;;6.35;2.03;;;;;;;10.85;100.00;99930.69;4983719;28;20089;-63
2023/07/13 11:32:12;;;;;;;5.65;2.38;;;;;;;10.80;100.00;99933.38;4985513;28;20049;-59
2023/07/13 11:35:29;;;;;;;6.68;1.77;;;;;;;10.79;100.00;99929.94;4964654;28;20051;-61
2023/07/13 11:38:55;;;;;;;5.10;2.15;;;;;;;10.78;100.00;99930.84;4976503;28;20412;-58
2023/07/13 11:42:03;;;;;;;6.03;2.08;;;;;;;10.72;100.00;99910.03;4986935;28;20480;-61
2023/07/13 11:44:36;;;;;;;9.57;2.40;;;;;;;10.78;100.00;99920.38;4939518;28;20464;-61
2023/07/13 11:47:16;;;;;;;8.38;2.28;;;;;;;10.70;100.00;99917.06;4930809;28;20125;-60
2023/07/13 11:49:52;;;;;;;2.63;1.73;;;;;;;10.30;100.00;99850.03;4931363;28;20047;-61
2023/07/13 11:52:33;;;;;;;6.88;2.55;;;;;;;10.78;100.00;99925.59;4940961;28;20114;-57
2023/07/13 11:55:15;;;;;;;7.78;2.63;;;;;;;10.78;100.00;99920.38;4931845;28;20042;-63
2023/07/13 11:57:52;;;;;;;8.35;2.28;;;;;;;10.80;100.00;99908.09;4932581;28;20058;-58
2023/07/13 12:00:27;;;;;;;7.25;2.85;;;;;;;10.83;100.00;99932.47;4941399;28;20073;-59
2023/07/13 12:03:04;;;;;;;9.38;2.40;;;;;;;10.83;100.00;99930.69;4932009;28;20745;-61
2023/07/13 12:05:38;;;;;;;8.32;2.58;;;;;;;10.82;100.00;99923.75;4940885;28;20558;-63
2023/07/13 12:08:15;;;;;;;6.30;2.20;;;;;;;10.73;100.00;99917.00;4932060;28;20043;-62
2023/07/13 12:11:01;;;;;;;6.72;2.60;;;;;;;10.89;100.00;99934.94;4932401;28;20216;-61
2023/07/13 12:13:39;;;;;;;6.25;2.40;;;;;;;10.89;100.00;99935.81;4941820;28;20058;-57
2023/07/13 12:16:17;;;;;;;8.40;2.78;;;;;;;10.83;100.00;99929.84;4937813;28;20125;-63
2023/07/13 12:18:49;;;;;;;6.38;2.58;;;;;;;10.76;100.00;99922.16;4934602;28;20042;-58
2023/07/13 12:21:27;;;;;;;5.60;2.33;;;;;;;10.83;100.00;99928.09;4944128;28;20363;-62
2023/07/13 12:23:59;;;;;;;5.28;2.25;;;;;;;10.85;100.00;99931.53;4934515;28;20054;-59
2023/07/13 12:26:31;;;;;;;5.32;1.92;;;;;;;10.83;100.00;99935.06;4945154;28;20615;-62
2023/07/13 12:29:08;;;;;;;5.13;2.35;;;;;;;10.74;100.00;99926.56;4960375;28;20050;-58
2023/07/13 12:31:45;;;;;;;3.97;2.40;;;;;;;10.74;100.00;99926.56;4980095;28;20052;-60
2023/07/13 12:34:19;;;;;;;5.90;2.00;;;;;;;10.78;100.00;99936.06;4982435;28;20372;-59
2023/07/13 12:36:53;;;;;;;6.22;2.58;;;;;;;10.79;100.00;99931.69;4971615;28;20299;-60
2023/07/13 12:39:34;;;;;;;6.45;2.38;;;;;;;10.72;100.00;99935.31;4981277;28;20045;-57
2023/07/13 12:42:26;;;;;;;6.13;2.10;;;;;;;10.74;100.00;99934.41;4968976;28;20119;-60
2023/07/13 12:45:03;;;;;;;5.82;1.80;;;;;;;10.67;100.00;99927.59;4974278;28;20514;-59
2023/07/13 12:47:44;;;;;;;9.95;1.70;;;;;;;10.76;100.00;99950.06;4973966;28;20062;-58
2023/07/13 12:50:19;;;;;;;8.10;2.38;;;;;;;10.74;100.00;99939.63;4981465;28;20081;-60
2023/07/13 12:52:55;;;;;;;7.03;1.83;;;;;;;10.47;100.00;99899.28;4976247;28;20049;-60
2023/07/13 12:55:32;;;;;;;4.28;2.28;;;;;;;10.71;100.00;99939.69;4987022;28;20053;-62
2023/07/13 12:58:09;;;;;;;4.82;1.80;;;;;;;10.76;100.00;99937.84;4972315;28;20503;-61
2023/07/13 13:00:53;;;;;;;3.92;1.70;;;;;;;10.75;100.00;99941.31;4977291;28;20124;-57
2023/07/13 13:03:31;;;;;;;5.53;1.80;;;;;;;10.74;100.00;99944.84;4989567;28;20053;-58
2023/07/13 13:06:05;;;;;;;4.68;1.70;;;;;;;10.75;100.00;99941.31;4981079;28;20540;-55